• Join FlightAware (Why Join?)
  • Login
  • US Flag 
07:48PM EST


 

Airport Tracker/Info


-or-


 

Live Flight TrackerFlight Track Log ✈ ASQ5685 ✈ 30-Nov-2013 ✈ KATL - KIAD

Flight Track Log - Related Links

Times and Time Zones

All times are in EST time to prevent confusion due to time zone crossing. See the ASQ5685 flight status page for this flight to view local times or setup timezone preferences in your user account.

Time Position Orientation Groundspeed Altitude Reporting Facility
EST Latitude Longitude Course Direction KTS MPH feet Rate Location/Type
09:42AM 33.6333 -84.4000 69° East 179 206 2,300  Level Atlanta TRACON
09:43AM 33.6333 -84.3167 90° East 246 283 4,100 1,980 Climbing Atlanta TRACON
09:44AM 33.8757 -84.1438 54° Northeast  Level Estimated
09:44AM 33.6333 -84.2500 90° East 281 323 6,300  Level Atlanta TRACON
09:45AM 33.9552 -84.0488 53° Northeast  Level Estimated
09:45AM 33.6503 -84.0811 83° East 306 352 10,400  Level Atlanta Center
09:46AM 33.9960 -83.9230 69° East  Level FlightAware Approximate
09:46AM 33.7067 -84.0064 48° Northeast 318 366 11,600  Level Atlanta Center
09:47AM 34.0367 -83.7971 69° East  Level FlightAware Approximate
09:47AM 33.7794 -83.9114 47° Northeast 344 396 13,200  Level Atlanta Center
09:48AM 33.8525 -83.8186 47° Northeast 367 422 15,000 1,680 Climbing Atlanta Center
09:49AM 33.9233 -83.7258 47° Northeast 377 434 16,600 1,500 Climbing Atlanta Center
09:50AM 33.9919 -83.6203 52° Northeast 386 444 18,000 960 Climbing Atlanta Center
09:51AM 34.0603 -83.5097 53° Northeast 403 464 18,600 1,200 Climbing Atlanta Center
09:52AM 34.1286 -83.4014 53° Northeast 409 471 20,500 1,200 Climbing Atlanta Center
09:53AM 34.1739 -83.2731 67° East 404 465 21,000 480 Climbing Atlanta Center
09:54AM 34.2125 -83.1169 73° East 434 499 21,500 780 Climbing Atlanta Center
09:55AM 34.2950 -83.0028 49° Northeast 441 507 22,600 1,020 Climbing Atlanta Center
09:56AM 34.3669 -82.8911 52° Northeast 434 499 23,600 900 Climbing Atlanta Center
09:57AM 34.4558 -82.7917 43° Northeast 421 484 24,500 840 Climbing Atlanta Center
09:58AM 34.5531 -82.7122 34° Northeast 420 483 25,300 720 Climbing Atlanta Center
09:59AM 34.6331 -82.5997 49° Northeast 420 483 26,000 600 Climbing Atlanta Center
10:00AM 34.7008 -82.4925 52° Northeast 425 489 26,600 600 Climbing Atlanta Center
10:01AM 34.7742 -82.3672 55° Northeast 440 506 27,200 600 Climbing Atlanta Center
10:02AM 34.8475 -82.2444 54° Northeast 447 514 27,900 660 Climbing Atlanta Center
10:03AM 34.9289 -82.1083 54° Northeast 454 522 28,600 540 Climbing Atlanta Center
10:04AM 35.0042 -81.9847 53° Northeast 454 522 29,000 180 Climbing Atlanta Center
10:05AM 35.0769 -81.8511 56° Northeast 459 528 29,000  Level Atlanta Center
10:06AM 35.1497 -81.7144 57° Northeast 471 542 29,000  Level Atlanta Center
10:07AM 35.2200 -81.5778 58° Northeast 476 548 29,000  Level Atlanta Center
10:08AM 35.2942 -81.4356 57° Northeast 484 557 29,000  Level Atlanta Center
10:09AM 35.3664 -81.2958 58° Northeast 489 563 29,000  Level Atlanta Center
10:10AM 35.4403 -81.1506 58° Northeast 489 563 29,000  Level Atlanta Center
10:11AM 35.5081 -81.0206 57° Northeast 489 563 29,000  Level Atlanta Center
10:12AM 35.5817 -80.8825 57° Northeast 489 563 29,000  Level Atlanta Center
10:14AM 35.7300 -80.5944 58° Northeast 489 563 29,000  Level Washington Center
10:15AM 35.8050 -80.4506 57° Northeast 489 563 29,000  Level Washington Center
10:16AM 35.8794 -80.3064 57° Northeast 489 563 29,000  Level Washington Center
10:17AM 35.9519 -80.1619 58° Northeast 494 568 29,000  Level Washington Center
10:18AM 36.0328 -80.0072 57° Northeast 482 555 29,000  Level Washington Center
10:19AM 36.1111 -79.8650 56° Northeast 493 567 29,000  Level Washington Center
10:20AM 36.1892 -79.7228 56° Northeast 499 574 29,000  Level Washington Center
10:21AM 36.2689 -79.5825 55° Northeast 499 574 29,000  Level Washington Center
10:22AM 36.3331 -79.4725 54° Northeast 499 574 29,000 -180 Level Washington Center
10:23AM 36.4217 -79.3117 56° Northeast 508 585 28,700 -720 Descending Washington Center
10:24AM 36.5011 -79.1681 55° Northeast 508 585 27,600 -1,080 Descending Washington Center
10:25AM 36.5803 -79.0294 55° Northeast 496 571 26,600 -1,020 Descending Washington Center
10:26AM 36.6572 -78.8956 54° Northeast 485 558 25,600 -840 Descending Washington Center
10:27AM 36.7364 -78.7436 57° Northeast 480 552 25,000 -360 Descending Washington Center
10:28AM 36.8108 -78.6064 56° Northeast 473 544 25,000 -300 Level Washington Center
10:29AM 36.8950 -78.4903 48° Northeast 467 537 24,500 -780 Descending Washington Center
10:30AM 36.9978 -78.3850 39° Northeast 461 531 23,500 -840 Descending Washington Center
10:31AM 37.0917 -78.2894 39° Northeast 472 543 22,900 -780 Descending Washington Center
10:32AM 37.1942 -78.1836 39° Northeast 478 550 22,000 -480 Descending Washington Center
10:33AM 37.2986 -78.0747 40° Northeast 460 529 22,000  Level Washington Center
10:34AM 37.3947 -77.9733 40° Northeast 455 524 22,000  Level Washington Center
10:35AM 37.4906 -77.8717 40° Northeast 455 524 22,000 -360 Level Washington Center
10:36AM 37.5836 -77.7958 33° Northeast 448 516 21,300 -1,380 Descending Washington Center
10:37AM 37.6975 -77.7283 25° Northeast 443 510 19,300 -1,920 Descending Washington Center
10:38AM 37.8028 -77.6681 24° Northeast 429 494 17,600 -2,040 Descending Washington Center
10:39AM 37.9039 -77.6103 24° Northeast 409 471 15,300 -2,220 Descending Washington Center
10:40AM 38.0008 -77.5522 25° Northeast 394 453 13,100 -2,220 Descending Washington Center
10:41AM 38.0933 -77.5019 23° Northeast 371 427 11,000 -1,620 Descending Washington Center
10:42AM 38.1714 -77.4564 25° Northeast 336 387 10,000 -540 Descending Washington Center
10:43AM 38.2450 -77.4106 26° Northeast 302 348 10,000 -600 Level Washington Center
10:44AM 38.3164 -77.3675 25° Northeast 288 331 8,900 -1,320 Descending Washington Center
10:45AM 38.3914 -77.3744 356° North 258 297 7,400 -1,440 Descending Washington Center
10:46AM 38.4619 -77.4081 340° North 251 289 6,100 -1,380 Descending Washington Center
10:47AM 38.5303 -77.4389 341° North 251 289 4,600 -1,080 Descending Washington Center
10:48AM 38.6031 -77.4433 357° North 258 297 4,000 -360 Descending Washington Center
10:49AM 38.6667 -77.4333 North 262 302 4,000  Level Potomac TRACON
10:50AM 38.7500 -77.4333 360° North 238 274 4,000 -480 Level Potomac TRACON
10:51AM 38.8000 -77.4333 360° North 208 239 3,100 -1,080 Descending Potomac TRACON
10:52AM 38.8500 -77.4333 360° North 180 207 2,100 -1,020 Descending Potomac TRACON
10:53AM 38.9000 -77.4333 360° North 142 163 1,100 -960 Descending Potomac TRACON